createdAt,value
2023-05-06T16:45:39.982Z,13.15
2023-05-06T16:48:06.889Z,13.00
2023-05-06T16:50:34.621Z,12.80
2023-05-06T16:53:01.337Z,12.76
2023-05-06T16:55:28.077Z,12.74
2023-05-06T16:57:54.730Z,12.67
2023-05-06T17:00:21.479Z,12.54
2023-05-06T17:02:48.752Z,12.41
2023-05-06T17:05:15.609Z,12.36
2023-05-06T17:07:42.855Z,12.31
2023-05-06T17:10:10.019Z,12.33
2023-05-06T17:12:38.084Z,12.26
2023-05-06T17:15:05.247Z,12.26
2023-05-06T17:17:32.741Z,12.19
2023-05-06T17:19:59.492Z,12.21
2023-05-06T17:22:26.797Z,12.10
2023-05-06T17:24:53.472Z,12.08
2023-05-06T17:27:20.816Z,12.10
2023-05-06T17:29:47.558Z,12.05
2023-05-06T17:32:14.317Z,11.98
2023-05-06T17:34:41.000Z,12.10
2023-05-06T17:37:08.162Z,12.06
2023-05-06T17:39:35.036Z,12.05
2023-05-06T17:42:02.751Z,12.19
2023-05-06T17:44:29.536Z,12.06
2023-05-06T17:46:56.341Z,11.73
2023-05-06T17:49:23.351Z,11.80
2023-05-06T17:51:51.245Z,11.86
2023-05-06T17:54:18.118Z,11.84
2023-05-06T17:56:50.732Z,11.74
2023-05-06T17:59:21.122Z,11.36
2023-05-06T18:01:48.649Z,11.52
2023-05-06T18:04:15.413Z,11.46
2023-05-06T18:06:43.758Z,11.30
2023-05-06T18:09:10.485Z,11.29
2023-05-06T18:11:38.189Z,11.15
2023-05-06T18:14:06.056Z,11.00
2023-05-06T18:16:32.935Z,11.09
2023-05-06T18:19:09.672Z,11.29
2023-05-06T18:21:36.413Z,11.23
2023-05-06T18:24:15.269Z,11.23
2023-05-06T18:26:44.671Z,11.23
2023-05-06T18:29:13.383Z,11.18
2023-05-06T18:31:40.280Z,10.65
2023-05-06T18:34:07.119Z,10.72
2023-05-06T18:36:35.149Z,10.91
2023-05-06T18:39:04.586Z,11.09
2023-05-06T18:41:31.538Z,11.16
2023-05-06T18:43:58.152Z,11.11
2023-05-06T18:46:27.016Z,11.13
2023-05-06T18:48:53.905Z,11.11
2023-05-06T18:51:21.438Z,11.13
2023-05-06T18:53:48.126Z,11.13
2023-05-06T18:56:14.906Z,11.11
2023-05-06T18:58:41.997Z,11.11
2023-05-06T19:01:09.923Z,11.18
2023-05-06T19:03:37.758Z,11.19
2023-05-06T19:06:09.164Z,10.98
2023-05-06T19:08:35.972Z,11.08
2023-05-06T19:11:02.964Z,10.80
2023-05-06T19:13:30.129Z,10.56
2023-05-06T19:15:57.174Z,10.27
2023-05-06T19:18:24.305Z,10.57
2023-05-06T19:20:51.686Z,10.55
2023-05-06T19:23:20.116Z,10.65
2023-05-06T19:25:46.903Z,10.74
2023-05-06T19:28:13.592Z,10.73
2023-05-06T19:30:40.373Z,10.62
2023-05-06T19:33:07.212Z,10.59
2023-05-06T19:35:34.012Z,10.68
2023-05-06T19:38:00.766Z,10.78
2023-05-06T19:40:27.548Z,10.72
2023-05-06T19:42:55.439Z,10.72
2023-05-06T19:45:22.587Z,10.41
2023-05-06T19:47:49.197Z,10.07
2023-05-06T19:50:16.415Z,10.16
2023-05-06T19:52:43.172Z,10.34
2023-05-06T19:55:11.012Z,10.29
2023-05-06T19:57:37.951Z,10.28
2023-05-06T20:00:09.881Z,10.33
2023-05-06T20:02:38.047Z,10.34
2023-05-06T20:05:06.156Z,10.36
2023-05-06T20:07:33.736Z,10.30
2023-05-06T20:10:00.743Z,10.32
2023-05-06T20:12:27.491Z,10.42
2023-05-06T20:14:55.011Z,10.51
2023-05-06T20:17:22.757Z,10.10
2023-05-06T20:19:50.368Z,9.90
2023-05-06T20:22:19.952Z,9.85
2023-05-06T20:24:46.713Z,9.84
2023-05-06T20:27:13.478Z,9.87
2023-05-06T20:29:40.886Z,10.01
2023-05-06T20:32:07.771Z,10.09
2023-05-06T20:34:34.522Z,10.24
2023-05-06T20:37:01.630Z,10.29
2023-05-06T20:39:28.374Z,10.27
2023-05-06T20:41:55.034Z,10.35
2023-05-06T20:44:21.783Z,10.32
2023-05-06T20:46:48.458Z,10.23
2023-05-06T20:49:15.574Z,10.18
2023-05-06T20:51:42.250Z,9.91
2023-05-06T20:54:09.019Z,9.78
2023-05-06T20:56:35.703Z,9.91
2023-05-06T20:59:02.417Z,9.88
2023-05-06T21:01:29.229Z,9.97
2023-05-06T21:03:56.317Z,10.01
2023-05-06T21:06:23.007Z,9.94
2023-05-06T21:08:49.703Z,9.94
2023-05-06T21:11:16.632Z,9.91
2023-05-06T21:13:43.339Z,10.08
2023-05-06T21:16:10.139Z,9.93
2023-05-06T21:18:36.873Z,10.06
2023-05-06T21:21:03.868Z,10.05
2023-05-06T21:23:31.083Z,10.05
2023-05-06T21:25:59.385Z,10.13
2023-05-06T21:28:26.136Z,9.97
2023-05-06T21:30:52.872Z,10.10
2023-05-06T21:33:19.620Z,10.19
2023-05-06T21:35:46.254Z,10.27
2023-05-06T21:38:12.928Z,10.22
2023-05-06T21:40:39.578Z,9.93
2023-05-06T21:43:06.240Z,9.79
2023-05-06T21:45:32.902Z,9.85
2023-05-06T21:47:59.582Z,9.78
2023-05-06T21:50:26.758Z,9.79
2023-05-06T21:52:53.482Z,9.96
2023-05-06T21:55:20.618Z,9.93
2023-05-06T21:57:47.281Z,9.75
2023-05-06T22:00:14.930Z,9.74
2023-05-06T22:02:41.703Z,9.71
2023-05-06T22:05:09.522Z,9.79
2023-05-06T22:07:36.507Z,9.76
2023-05-06T22:10:04.724Z,9.75
2023-05-06T22:12:32.165Z,9.85
2023-05-06T22:14:59.351Z,9.83
2023-05-06T22:17:25.981Z,9.99
2023-05-06T22:19:54.483Z,10.03
2023-05-06T22:22:21.904Z,9.94
2023-05-06T22:24:48.759Z,10.04
2023-05-06T22:27:15.741Z,9.97
2023-05-06T22:29:44.702Z,9.94
2023-05-06T22:32:11.372Z,9.94
2023-05-06T22:34:38.027Z,9.82
2023-05-06T22:37:11.105Z,9.84
2023-05-06T22:39:37.853Z,9.89
2023-05-06T22:42:04.577Z,9.79
2023-05-06T22:44:31.371Z,9.73
2023-05-06T22:46:58.063Z,9.61
2023-05-06T22:49:28.287Z,9.63
2023-05-06T22:51:58.905Z,9.64
2023-05-06T22:54:25.597Z,9.65
2023-05-06T22:56:52.360Z,9.82
2023-05-06T22:59:19.127Z,9.81
2023-05-06T23:01:45.855Z,9.83
2023-05-06T23:04:13.086Z,9.72
2023-05-06T23:06:40.073Z,9.62
2023-05-06T23:09:07.991Z,9.68
2023-05-06T23:11:34.741Z,9.45
2023-05-06T23:14:02.035Z,9.46
2023-05-06T23:16:29.599Z,9.41
2023-05-06T23:18:57.152Z,9.68
2023-05-06T23:21:24.331Z,9.75
2023-05-06T23:23:51.010Z,9.75
2023-05-06T23:26:18.180Z,9.80
2023-05-06T23:28:44.883Z,9.86
2023-05-06T23:31:11.659Z,9.88
2023-05-06T23:33:38.307Z,9.92
2023-05-06T23:36:05.143Z,9.92
2023-05-06T23:38:31.872Z,9.91
2023-05-06T23:40:58.483Z,9.99
2023-05-06T23:43:25.125Z,9.91
2023-05-06T23:45:51.770Z,9.89
2023-05-06T23:48:18.469Z,9.85
2023-05-06T23:50:45.110Z,9.75
2023-05-06T23:53:11.860Z,9.68
2023-05-06T23:55:38.670Z,9.65
2023-05-06T23:58:05.923Z,9.57
